sensor_id;sensor_type;location;lat;lon;timestamp;P1;durP1;ratioP1;P2;durP2;ratioP2
23001;SDS011;11667;51.706;4.856;2023-02-03T00:00:50;11.80;;;2.75;;
23001;SDS011;11667;51.706;4.856;2023-02-03T00:03:20;16.65;;;3.20;;
23001;SDS011;11667;51.706;4.856;2023-02-03T00:05:49;15.15;;;3.20;;
23001;SDS011;11667;51.706;4.856;2023-02-03T00:08:19;12.85;;;3.10;;
23001;SDS011;11667;51.706;4.856;2023-02-03T00:10:49;14.23;;;3.05;;
23001;SDS011;11667;51.706;4.856;2023-02-03T00:13:18;16.57;;;3.05;;
23001;SDS011;11667;51.706;4.856;2023-02-03T00:15:47;17.35;;;3.42;;
23001;SDS011;11667;51.706;4.856;2023-02-03T00:18:17;16.32;;;3.47;;
23001;SDS011;11667;51.706;4.856;2023-02-03T00:20:46;11.50;;;3.37;;
23001;SDS011;11667;51.706;4.856;2023-02-03T00:23:16;11.78;;;2.83;;
23001;SDS011;11667;51.706;4.856;2023-02-03T00:25:45;11.90;;;2.80;;
23001;SDS011;11667;51.706;4.856;2023-02-03T00:28:15;13.35;;;2.90;;
23001;SDS011;11667;51.706;4.856;2023-02-03T00:30:44;13.70;;;2.98;;
23001;SDS011;11667;51.706;4.856;2023-02-03T00:33:14;15.40;;;2.40;;
23001;SDS011;11667;51.706;4.856;2023-02-03T00:35:43;10.03;;;2.62;;
23001;SDS011;11667;51.706;4.856;2023-02-03T00:38:12;10.25;;;2.30;;
23001;SDS011;11667;51.706;4.856;2023-02-03T00:40:41;14.43;;;3.20;;
23001;SDS011;11667;51.706;4.856;2023-02-03T00:43:13;14.65;;;2.85;;
23001;SDS011;11667;51.706;4.856;2023-02-03T00:45:42;13.88;;;3.30;;
23001;SDS011;11667;51.706;4.856;2023-02-03T00:48:12;11.93;;;2.62;;
23001;SDS011;11667;51.706;4.856;2023-02-03T00:50:45;11.50;;;2.50;;
23001;SDS011;11667;51.706;4.856;2023-02-03T00:53:14;11.07;;;2.87;;
23001;SDS011;11667;51.706;4.856;2023-02-03T00:55:44;10.60;;;2.58;;
23001;SDS011;11667;51.706;4.856;2023-02-03T00:58:13;9.78;;;2.52;;
23001;SDS011;11667;51.706;4.856;2023-02-03T01:00:42;12.90;;;3.20;;
23001;SDS011;11667;51.706;4.856;2023-02-03T01:03:12;11.83;;;2.90;;
23001;SDS011;11667;51.706;4.856;2023-02-03T01:05:41;12.40;;;3.08;;
23001;SDS011;11667;51.706;4.856;2023-02-03T01:08:11;9.68;;;2.67;;
23001;SDS011;11667;51.706;4.856;2023-02-03T01:10:41;14.18;;;2.72;;
23001;SDS011;11667;51.706;4.856;2023-02-03T01:13:11;11.97;;;2.77;;
23001;SDS011;11667;51.706;4.856;2023-02-03T01:15:46;11.90;;;3.05;;
23001;SDS011;11667;51.706;4.856;2023-02-03T01:18:16;11.83;;;2.80;;
23001;SDS011;11667;51.706;4.856;2023-02-03T01:20:47;11.03;;;2.98;;
23001;SDS011;11667;51.706;4.856;2023-02-03T01:23:16;8.65;;;2.92;;
23001;SDS011;11667;51.706;4.856;2023-02-03T01:25:45;11.15;;;3.08;;
23001;SDS011;11667;51.706;4.856;2023-02-03T01:28:15;13.40;;;3.45;;
23001;SDS011;11667;51.706;4.856;2023-02-03T01:30:45;9.00;;;2.60;;
23001;SDS011;11667;51.706;4.856;2023-02-03T01:33:14;8.75;;;2.62;;
23001;SDS011;11667;51.706;4.856;2023-02-03T01:35:43;6.47;;;2.50;;
23001;SDS011;11667;51.706;4.856;2023-02-03T01:38:13;9.80;;;2.70;;
23001;SDS011;11667;51.706;4.856;2023-02-03T01:40:42;13.15;;;3.25;;
23001;SDS011;11667;51.706;4.856;2023-02-03T01:43:26;12.55;;;3.77;;
23001;SDS011;11667;51.706;4.856;2023-02-03T01:45:45;13.93;;;2.90;;
23001;SDS011;11667;51.706;4.856;2023-02-03T01:48:15;15.63;;;3.15;;
23001;SDS011;11667;51.706;4.856;2023-02-03T01:50:45;12.30;;;3.22;;
23001;SDS011;11667;51.706;4.856;2023-02-03T01:53:14;8.78;;;2.65;;
23001;SDS011;11667;51.706;4.856;2023-02-03T01:55:44;11.20;;;2.77;;
23001;SDS011;11667;51.706;4.856;2023-02-03T01:58:27;9.50;;;2.70;;
23001;SDS011;11667;51.706;4.856;2023-02-03T02:00:55;11.68;;;2.98;;
23001;SDS011;11667;51.706;4.856;2023-02-03T02:03:26;11.08;;;2.83;;
23001;SDS011;11667;51.706;4.856;2023-02-03T02:06:00;11.30;;;2.62;;
23001;SDS011;11667;51.706;4.856;2023-02-03T02:08:31;9.80;;;2.67;;
23001;SDS011;11667;51.706;4.856;2023-02-03T02:11:00;12.95;;;3.50;;
23001;SDS011;11667;51.706;4.856;2023-02-03T02:13:30;11.88;;;2.80;;
23001;SDS011;11667;51.706;4.856;2023-02-03T02:16:19;12.03;;;3.22;;
23001;SDS011;11667;51.706;4.856;2023-02-03T02:19:10;9.98;;;2.42;;
23001;SDS011;11667;51.706;4.856;2023-02-03T02:41:19;11.60;;;2.30;;
23001;SDS011;11667;51.706;4.856;2023-02-03T02:46:33;17.20;;;3.05;;
23001;SDS011;11667;51.706;4.856;2023-02-03T02:49:08;6.55;;;2.10;;
23001;SDS011;11667;51.706;4.856;2023-02-03T02:51:42;8.95;;;2.02;;
23001;SDS011;11667;51.706;4.856;2023-02-03T02:54:12;10.28;;;2.30;;
23001;SDS011;11667;51.706;4.856;2023-02-03T02:56:44;11.70;;;2.65;;
23001;SDS011;11667;51.706;4.856;2023-02-03T02:59:16;11.38;;;2.42;;
23001;SDS011;11667;51.706;4.856;2023-02-03T03:01:45;14.70;;;2.10;;
23001;SDS011;11667;51.706;4.856;2023-02-03T03:04:15;8.35;;;2.33;;
23001;SDS011;11667;51.706;4.856;2023-02-03T03:06:48;12.20;;;2.22;;
23001;SDS011;11667;51.706;4.856;2023-02-03T03:09:24;8.03;;;1.92;;
23001;SDS011;11667;51.706;4.856;2023-02-03T03:11:53;7.12;;;1.82;;
23001;SDS011;11667;51.706;4.856;2023-02-03T03:14:26;7.83;;;2.15;;
23001;SDS011;11667;51.706;4.856;2023-02-03T03:16:58;10.40;;;2.25;;
23001;SDS011;11667;51.706;4.856;2023-02-03T03:19:34;12.93;;;2.25;;
23001;SDS011;11667;51.706;4.856;2023-02-03T03:24:30;11.63;;;2.27;;
23001;SDS011;11667;51.706;4.856;2023-02-03T03:27:37;9.83;;;2.15;;
23001;SDS011;11667;51.706;4.856;2023-02-03T03:29:53;11.12;;;2.15;;
23001;SDS011;11667;51.706;4.856;2023-02-03T03:32:27;9.70;;;1.90;;
23001;SDS011;11667;51.706;4.856;2023-02-03T03:34:59;7.78;;;2.27;;
23001;SDS011;11667;51.706;4.856;2023-02-03T03:37:37;9.03;;;2.27;;
23001;SDS011;11667;51.706;4.856;2023-02-03T03:40:15;8.08;;;2.08;;
23001;SDS011;11667;51.706;4.856;2023-02-03T03:45:23;14.95;;;2.40;;
23001;SDS011;11667;51.706;4.856;2023-02-03T03:48:03;10.68;;;2.17;;
23001;SDS011;11667;51.706;4.856;2023-02-03T03:50:33;14.20;;;2.40;;
23001;SDS011;11667;51.706;4.856;2023-02-03T03:53:11;11.00;;;1.90;;
23001;SDS011;11667;51.706;4.856;2023-02-03T03:55:41;11.55;;;1.87;;
23001;SDS011;11667;51.706;4.856;2023-02-03T03:58:14;13.40;;;2.58;;
23001;SDS011;11667;51.706;4.856;2023-02-03T04:00:46;9.95;;;1.90;;
23001;SDS011;11667;51.706;4.856;2023-02-03T04:03:16;7.78;;;2.00;;
23001;SDS011;11667;51.706;4.856;2023-02-03T04:05:52;7.33;;;1.80;;
23001;SDS011;11667;51.706;4.856;2023-02-03T04:08:21;6.55;;;1.90;;
23001;SDS011;11667;51.706;4.856;2023-02-03T04:10:50;9.88;;;2.45;;
23001;SDS011;11667;51.706;4.856;2023-02-03T04:13:20;8.98;;;2.05;;
23001;SDS011;11667;51.706;4.856;2023-02-03T04:15:49;9.78;;;2.20;;
23001;SDS011;11667;51.706;4.856;2023-02-03T04:18:18;9.05;;;2.12;;
23001;SDS011;11667;51.706;4.856;2023-02-03T04:20:48;9.65;;;1.80;;
23001;SDS011;11667;51.706;4.856;2023-02-03T04:23:17;10.32;;;2.22;;
23001;SDS011;11667;51.706;4.856;2023-02-03T04:25:47;11.28;;;2.62;;
23001;SDS011;11667;51.706;4.856;2023-02-03T04:28:16;15.75;;;2.30;;
23001;SDS011;11667;51.706;4.856;2023-02-03T04:30:46;12.55;;;2.12;;
23001;SDS011;11667;51.706;4.856;2023-02-03T04:33:15;9.15;;;2.00;;
23001;SDS011;11667;51.706;4.856;2023-02-03T04:35:45;12.33;;;2.05;;
23001;SDS011;11667;51.706;4.856;2023-02-03T04:38:15;10.00;;;1.87;;
23001;SDS011;11667;51.706;4.856;2023-02-03T04:40:44;14.20;;;2.42;;
23001;SDS011;11667;51.706;4.856;2023-02-03T04:43:14;11.88;;;2.08;;
23001;SDS011;11667;51.706;4.856;2023-02-03T04:45:44;10.88;;;2.50;;
23001;SDS011;11667;51.706;4.856;2023-02-03T04:48:13;11.12;;;2.08;;
23001;SDS011;11667;51.706;4.856;2023-02-03T04:50:43;12.23;;;2.10;;
23001;SDS011;11667;51.706;4.856;2023-02-03T04:53:12;11.53;;;2.08;;
23001;SDS011;11667;51.706;4.856;2023-02-03T04:55:49;12.78;;;2.67;;
23001;SDS011;11667;51.706;4.856;2023-02-03T04:58:18;6.92;;;1.60;;
23001;SDS011;11667;51.706;4.856;2023-02-03T05:00:47;10.48;;;2.15;;
23001;SDS011;11667;51.706;4.856;2023-02-03T05:03:17;10.20;;;2.08;;
23001;SDS011;11667;51.706;4.856;2023-02-03T05:05:46;9.45;;;1.95;;
23001;SDS011;11667;51.706;4.856;2023-02-03T05:08:17;9.03;;;1.80;;
23001;SDS011;11667;51.706;4.856;2023-02-03T05:10:46;10.65;;;2.10;;
23001;SDS011;11667;51.706;4.856;2023-02-03T05:13:16;8.65;;;2.27;;
23001;SDS011;11667;51.706;4.856;2023-02-03T05:15:45;8.23;;;2.00;;
23001;SDS011;11667;51.706;4.856;2023-02-03T05:18:14;14.83;;;2.42;;
23001;SDS011;11667;51.706;4.856;2023-02-03T05:20:43;9.48;;;2.33;;
23001;SDS011;11667;51.706;4.856;2023-02-03T05:23:13;12.15;;;2.02;;
23001;SDS011;11667;51.706;4.856;2023-02-03T05:25:42;8.88;;;2.08;;
23001;SDS011;11667;51.706;4.856;2023-02-03T05:28:12;11.10;;;1.90;;
23001;SDS011;11667;51.706;4.856;2023-02-03T05:30:41;8.33;;;1.67;;
23001;SDS011;11667;51.706;4.856;2023-02-03T05:33:11;11.78;;;2.25;;
23001;SDS011;11667;51.706;4.856;2023-02-03T05:35:40;9.85;;;2.30;;
23001;SDS011;11667;51.706;4.856;2023-02-03T05:38:09;14.40;;;2.20;;
23001;SDS011;11667;51.706;4.856;2023-02-03T05:40:38;10.75;;;3.00;;
23001;SDS011;11667;51.706;4.856;2023-02-03T05:43:26;17.35;;;5.33;;
23001;SDS011;11667;51.706;4.856;2023-02-03T05:45:58;17.65;;;5.75;;
23001;SDS011;11667;51.706;4.856;2023-02-03T05:48:28;18.15;;;4.00;;
23001;SDS011;11667;51.706;4.856;2023-02-03T05:50:57;22.87;;;9.45;;
23001;SDS011;11667;51.706;4.856;2023-02-03T05:53:27;30.57;;;9.70;;
23001;SDS011;11667;51.706;4.856;2023-02-03T05:55:56;16.23;;;4.83;;
23001;SDS011;11667;51.706;4.856;2023-02-03T05:58:25;13.05;;;3.72;;
23001;SDS011;11667;51.706;4.856;2023-02-03T06:00:55;15.72;;;2.85;;
23001;SDS011;11667;51.706;4.856;2023-02-03T06:03:24;9.68;;;2.40;;
23001;SDS011;11667;51.706;4.856;2023-02-03T06:05:53;14.20;;;2.77;;
23001;SDS011;11667;51.706;4.856;2023-02-03T06:08:23;10.58;;;2.15;;
23001;SDS011;11667;51.706;4.856;2023-02-03T06:10:57;12.60;;;2.40;;
23001;SDS011;11667;51.706;4.856;2023-02-03T06:13:28;14.43;;;2.37;;
23001;SDS011;11667;51.706;4.856;2023-02-03T06:15:58;13.20;;;2.55;;
23001;SDS011;11667;51.706;4.856;2023-02-03T06:18:27;10.75;;;2.10;;
23001;SDS011;11667;51.706;4.856;2023-02-03T06:20:56;12.35;;;2.90;;
23001;SDS011;11667;51.706;4.856;2023-02-03T06:23:26;15.15;;;2.62;;
23001;SDS011;11667;51.706;4.856;2023-02-03T06:25:55;13.65;;;2.72;;
23001;SDS011;11667;51.706;4.856;2023-02-03T06:28:27;15.93;;;2.70;;
23001;SDS011;11667;51.706;4.856;2023-02-03T06:30:56;12.10;;;2.40;;
23001;SDS011;11667;51.706;4.856;2023-02-03T06:33:26;13.45;;;2.58;;
23001;SDS011;11667;51.706;4.856;2023-02-03T06:35:55;12.88;;;2.30;;
23001;SDS011;11667;51.706;4.856;2023-02-03T06:38:25;11.50;;;2.30;;
23001;SDS011;11667;51.706;4.856;2023-02-03T06:40:54;15.00;;;2.60;;
23001;SDS011;11667;51.706;4.856;2023-02-03T06:43:23;9.60;;;2.00;;
23001;SDS011;11667;51.706;4.856;2023-02-03T06:45:53;11.08;;;2.05;;
23001;SDS011;11667;51.706;4.856;2023-02-03T06:48:23;11.95;;;2.40;;
23001;SDS011;11667;51.706;4.856;2023-02-03T06:50:52;13.93;;;2.60;;
23001;SDS011;11667;51.706;4.856;2023-02-03T06:53:22;10.20;;;2.35;;
23001;SDS011;11667;51.706;4.856;2023-02-03T06:55:51;18.27;;;2.58;;
23001;SDS011;11667;51.706;4.856;2023-02-03T06:58:21;12.30;;;2.85;;
23001;SDS011;11667;51.706;4.856;2023-02-03T07:00:53;14.90;;;3.17;;
23001;SDS011;11667;51.706;4.856;2023-02-03T07:03:23;14.60;;;3.08;;
23001;SDS011;11667;51.706;4.856;2023-02-03T07:05:53;13.22;;;2.65;;
23001;SDS011;11667;51.706;4.856;2023-02-03T07:08:22;11.30;;;2.58;;
23001;SDS011;11667;51.706;4.856;2023-02-03T07:10:54;11.45;;;2.60;;
23001;SDS011;11667;51.706;4.856;2023-02-03T07:13:24;18.48;;;3.00;;
23001;SDS011;11667;51.706;4.856;2023-02-03T07:15:53;14.33;;;2.27;;
23001;SDS011;11667;51.706;4.856;2023-02-03T07:18:22;16.55;;;2.60;;
23001;SDS011;11667;51.706;4.856;2023-02-03T07:20:55;11.20;;;2.70;;
23001;SDS011;11667;51.706;4.856;2023-02-03T07:23:25;16.42;;;2.80;;
23001;SDS011;11667;51.706;4.856;2023-02-03T07:25:57;19.10;;;3.30;;
23001;SDS011;11667;51.706;4.856;2023-02-03T07:28:30;13.62;;;2.80;;
23001;SDS011;11667;51.706;4.856;2023-02-03T07:31:00;16.40;;;3.25;;
23001;SDS011;11667;51.706;4.856;2023-02-03T07:33:31;16.50;;;3.00;;
23001;SDS011;11667;51.706;4.856;2023-02-03T07:36:00;14.20;;;2.72;;
23001;SDS011;11667;51.706;4.856;2023-02-03T07:38:31;15.10;;;2.80;;
23001;SDS011;11667;51.706;4.856;2023-02-03T07:41:00;21.62;;;3.17;;
23001;SDS011;11667;51.706;4.856;2023-02-03T07:43:29;18.85;;;3.20;;
23001;SDS011;11667;51.706;4.856;2023-02-03T07:45:59;11.12;;;3.55;;
23001;SDS011;11667;51.706;4.856;2023-02-03T07:48:28;13.75;;;2.90;;
23001;SDS011;11667;51.706;4.856;2023-02-03T07:50:58;13.88;;;3.17;;
23001;SDS011;11667;51.706;4.856;2023-02-03T07:53:27;18.32;;;3.40;;
23001;SDS011;11667;51.706;4.856;2023-02-03T07:56:00;17.87;;;3.17;;
23001;SDS011;11667;51.706;4.856;2023-02-03T07:58:30;18.10;;;3.45;;
23001;SDS011;11667;51.706;4.856;2023-02-03T08:01:00;12.53;;;2.95;;
23001;SDS011;11667;51.706;4.856;2023-02-03T08:03:29;14.90;;;3.02;;
23001;SDS011;11667;51.706;4.856;2023-02-03T08:05:58;17.35;;;3.30;;
23001;SDS011;11667;51.706;4.856;2023-02-03T08:08:28;15.43;;;3.10;;
23001;SDS011;11667;51.706;4.856;2023-02-03T08:10:58;18.35;;;3.42;;
23001;SDS011;11667;51.706;4.856;2023-02-03T08:13:27;16.35;;;3.27;;
23001;SDS011;11667;51.706;4.856;2023-02-03T08:15:57;18.67;;;3.58;;
23001;SDS011;11667;51.706;4.856;2023-02-03T08:18:26;16.73;;;3.55;;
23001;SDS011;11667;51.706;4.856;2023-02-03T08:20:58;15.85;;;3.42;;
23001;SDS011;11667;51.706;4.856;2023-02-03T08:23:29;19.82;;;4.00;;
23001;SDS011;11667;51.706;4.856;2023-02-03T08:25:59;17.25;;;4.30;;
23001;SDS011;11667;51.706;4.856;2023-02-03T08:28:28;21.68;;;3.77;;
23001;SDS011;11667;51.706;4.856;2023-02-03T08:30:58;14.20;;;3.45;;
23001;SDS011;11667;51.706;4.856;2023-02-03T08:33:27;19.50;;;4.45;;
23001;SDS011;11667;51.706;4.856;2023-02-03T08:35:57;23.00;;;3.67;;
23001;SDS011;11667;51.706;4.856;2023-02-03T08:38:27;14.95;;;2.90;;
23001;SDS011;11667;51.706;4.856;2023-02-03T08:40:57;15.03;;;3.15;;
23001;SDS011;11667;51.706;4.856;2023-02-03T08:43:26;15.90;;;2.90;;
23001;SDS011;11667;51.706;4.856;2023-02-03T08:45:56;14.93;;;3.12;;
23001;SDS011;11667;51.706;4.856;2023-02-03T08:48:28;22.17;;;3.10;;
23001;SDS011;11667;51.706;4.856;2023-02-03T08:50:58;15.95;;;3.30;;
23001;SDS011;11667;51.706;4.856;2023-02-03T08:53:27;16.60;;;2.65;;
23001;SDS011;11667;51.706;4.856;2023-02-03T08:55:56;16.90;;;2.85;;
23001;SDS011;11667;51.706;4.856;2023-02-03T08:58:26;18.70;;;2.83;;
23001;SDS011;11667;51.706;4.856;2023-02-03T09:00:55;16.15;;;3.10;;
23001;SDS011;11667;51.706;4.856;2023-02-03T09:03:35;18.95;;;3.30;;
23001;SDS011;11667;51.706;4.856;2023-02-03T09:06:05;16.60;;;3.02;;
23001;SDS011;11667;51.706;4.856;2023-02-03T09:08:35;15.63;;;3.30;;
23001;SDS011;11667;51.706;4.856;2023-02-03T09:11:12;15.90;;;3.60;;
23001;SDS011;11667;51.706;4.856;2023-02-03T09:13:43;16.50;;;3.60;;
23001;SDS011;11667;51.706;4.856;2023-02-03T09:16:13;14.73;;;3.20;;
23001;SDS011;11667;51.706;4.856;2023-02-03T09:18:44;16.95;;;3.08;;
23001;SDS011;11667;51.706;4.856;2023-02-03T09:21:14;19.73;;;2.98;;
23001;SDS011;11667;51.706;4.856;2023-02-03T09:23:46;17.20;;;2.90;;
23001;SDS011;11667;51.706;4.856;2023-02-03T09:26:16;17.15;;;2.85;;
23001;SDS011;11667;51.706;4.856;2023-02-03T09:28:45;12.98;;;3.22;;
23001;SDS011;11667;51.706;4.856;2023-02-03T09:31:15;11.68;;;2.37;;
23001;SDS011;11667;51.706;4.856;2023-02-03T09:33:44;14.70;;;2.47;;
23001;SDS011;11667;51.706;4.856;2023-02-03T09:36:14;11.25;;;2.42;;
23001;SDS011;11667;51.706;4.856;2023-02-03T09:38:44;12.47;;;2.65;;
23001;SDS011;11667;51.706;4.856;2023-02-03T09:44:07;12.07;;;2.60;;
23001;SDS011;11667;51.706;4.856;2023-02-03T09:46:41;12.37;;;2.58;;
23001;SDS011;11667;51.706;4.856;2023-02-03T09:49:23;16.65;;;2.70;;
23001;SDS011;11667;51.706;4.856;2023-02-03T09:52:02;10.85;;;1.87;;
23001;SDS011;11667;51.706;4.856;2023-02-03T09:57:12;10.53;;;2.02;;
23001;SDS011;11667;51.706;4.856;2023-02-03T09:59:43;11.73;;;2.40;;
23001;SDS011;11667;51.706;4.856;2023-02-03T10:05:02;12.40;;;2.30;;
23001;SDS011;11667;51.706;4.856;2023-02-03T10:10:52;13.13;;;2.42;;
23001;SDS011;11667;51.706;4.856;2023-02-03T10:19:08;12.28;;;2.25;;
23001;SDS011;11667;51.706;4.856;2023-02-03T10:21:40;10.45;;;2.90;;
23001;SDS011;11667;51.706;4.856;2023-02-03T10:24:13;15.00;;;2.62;;
23001;SDS011;11667;51.706;4.856;2023-02-03T10:26:45;12.03;;;2.17;;
23001;SDS011;11667;51.706;4.856;2023-02-03T10:29:25;11.08;;;2.50;;
23001;SDS011;11667;51.706;4.856;2023-02-03T10:31:53;10.53;;;1.90;;
23001;SDS011;11667;51.706;4.856;2023-02-03T10:34:25;11.30;;;2.10;;
23001;SDS011;11667;51.706;4.856;2023-02-03T10:37:01;14.43;;;2.20;;
23001;SDS011;11667;51.706;4.856;2023-02-03T10:39:28;14.73;;;2.08;;
23001;SDS011;11667;51.706;4.856;2023-02-03T10:42:02;18.12;;;2.55;;
23001;SDS011;11667;51.706;4.856;2023-02-03T10:44:56;10.83;;;2.00;;
23001;SDS011;11667;51.706;4.856;2023-02-03T10:50:04;17.57;;;2.65;;
23001;SDS011;11667;51.706;4.856;2023-02-03T10:52:34;9.28;;;1.67;;
23001;SDS011;11667;51.706;4.856;2023-02-03T10:55:05;12.98;;;2.10;;
23001;SDS011;11667;51.706;4.856;2023-02-03T10:57:37;11.73;;;1.92;;
23001;SDS011;11667;51.706;4.856;2023-02-03T11:02:58;10.05;;;1.85;;
23001;SDS011;11667;51.706;4.856;2023-02-03T11:05:42;12.75;;;2.12;;
23001;SDS011;11667;51.706;4.856;2023-02-03T11:08:14;12.63;;;2.62;;
23001;SDS011;11667;51.706;4.856;2023-02-03T11:10:44;12.20;;;2.10;;
23001;SDS011;11667;51.706;4.856;2023-02-03T11:16:02;7.55;;;2.05;;
23001;SDS011;11667;51.706;4.856;2023-02-03T11:18:44;12.55;;;2.00;;
23001;SDS011;11667;51.706;4.856;2023-02-03T11:21:22;13.05;;;2.30;;
23001;SDS011;11667;51.706;4.856;2023-02-03T11:23:59;12.75;;;2.12;;
23001;SDS011;11667;51.706;4.856;2023-02-03T11:28:56;12.93;;;1.95;;
23001;SDS011;11667;51.706;4.856;2023-02-03T11:31:27;15.03;;;2.10;;
23001;SDS011;11667;51.706;4.856;2023-02-03T11:34:00;9.08;;;2.02;;
23001;SDS011;11667;51.706;4.856;2023-02-03T11:36:34;10.30;;;2.00;;
23001;SDS011;11667;51.706;4.856;2023-02-03T11:39:15;12.63;;;1.85;;
23001;SDS011;11667;51.706;4.856;2023-02-03T11:41:45;11.88;;;2.00;;
23001;SDS011;11667;51.706;4.856;2023-02-03T11:44:17;12.05;;;2.10;;
23001;SDS011;11667;51.706;4.856;2023-02-03T11:46:54;11.75;;;2.00;;
23001;SDS011;11667;51.706;4.856;2023-02-03T11:55:07;8.05;;;2.17;;
23001;SDS011;11667;51.706;4.856;2023-02-03T12:00:54;9.53;;;2.25;;
23001;SDS011;11667;51.706;4.856;2023-02-03T12:06:27;9.28;;;1.87;;
23001;SDS011;11667;51.706;4.856;2023-02-03T12:09:11;10.85;;;1.90;;
23001;SDS011;11667;51.706;4.856;2023-02-03T12:17:31;8.28;;;2.05;;
23001;SDS011;11667;51.706;4.856;2023-02-03T12:23:08;13.62;;;2.12;;
23001;SDS011;11667;51.706;4.856;2023-02-03T12:25:59;8.50;;;2.10;;
23001;SDS011;11667;51.706;4.856;2023-02-03T12:28:42;10.95;;;2.25;;
23001;SDS011;11667;51.706;4.856;2023-02-03T12:34:21;9.03;;;2.02;;
23001;SDS011;11667;51.706;4.856;2023-02-03T12:36:41;12.30;;;2.10;;
23001;SDS011;11667;51.706;4.856;2023-02-03T12:41:47;9.10;;;2.72;;
23001;SDS011;11667;51.706;4.856;2023-02-03T12:44:23;10.18;;;2.42;;
23001;SDS011;11667;51.706;4.856;2023-02-03T12:47:05;8.45;;;2.08;;
23001;SDS011;11667;51.706;4.856;2023-02-03T12:49:53;11.65;;;3.05;;
23001;SDS011;11667;51.706;4.856;2023-02-03T13:00:20;9.20;;;2.35;;
23001;SDS011;11667;51.706;4.856;2023-02-03T13:03:42;7.40;;;2.00;;
23001;SDS011;11667;51.706;4.856;2023-02-03T13:05:40;9.20;;;2.25;;
23001;SDS011;11667;51.706;4.856;2023-02-03T13:08:29;7.87;;;2.35;;
23001;SDS011;11667;51.706;4.856;2023-02-03T13:16:35;12.25;;;2.62;;
23001;SDS011;11667;51.706;4.856;2023-02-03T13:19:09;9.58;;;2.30;;
23001;SDS011;11667;51.706;4.856;2023-02-03T13:21:39;10.50;;;2.50;;
23001;SDS011;11667;51.706;4.856;2023-02-03T13:24:09;11.00;;;2.70;;
23001;SDS011;11667;51.706;4.856;2023-02-03T13:29:38;9.73;;;2.20;;
23001;SDS011;11667;51.706;4.856;2023-02-03T13:35:10;9.80;;;2.45;;
23001;SDS011;11667;51.706;4.856;2023-02-03T13:40:24;10.68;;;2.65;;
23001;SDS011;11667;51.706;4.856;2023-02-03T13:43:01;9.88;;;2.42;;
23001;SDS011;11667;51.706;4.856;2023-02-03T13:45:35;12.37;;;2.50;;
23001;SDS011;11667;51.706;4.856;2023-02-03T13:48:12;9.70;;;2.67;;
23001;SDS011;11667;51.706;4.856;2023-02-03T13:50:47;9.80;;;2.67;;
23001;SDS011;11667;51.706;4.856;2023-02-03T13:53:22;10.30;;;2.95;;
23001;SDS011;11667;51.706;4.856;2023-02-03T13:56:02;13.70;;;2.60;;
23001;SDS011;11667;51.706;4.856;2023-02-03T13:58:31;7.33;;;2.20;;
23001;SDS011;11667;51.706;4.856;2023-02-03T14:01:25;9.00;;;2.65;;
23001;SDS011;11667;51.706;4.856;2023-02-03T14:03:54;8.25;;;2.50;;
23001;SDS011;11667;51.706;4.856;2023-02-03T14:17:52;8.18;;;2.40;;
23001;SDS011;11667;51.706;4.856;2023-02-03T14:23:09;13.00;;;2.62;;
23001;SDS011;11667;51.706;4.856;2023-02-03T14:25:40;10.40;;;2.80;;
23001;SDS011;11667;51.706;4.856;2023-02-03T14:28:17;8.23;;;2.35;;
23001;SDS011;11667;51.706;4.856;2023-02-03T14:50:23;10.72;;;3.15;;
23001;SDS011;11667;51.706;4.856;2023-02-03T14:53:14;10.50;;;2.80;;
23001;SDS011;11667;51.706;4.856;2023-02-03T14:56:06;10.50;;;2.62;;
23001;SDS011;11667;51.706;4.856;2023-02-03T14:58:44;11.60;;;2.20;;
23001;SDS011;11667;51.706;4.856;2023-02-03T15:02:07;7.53;;;3.20;;
23001;SDS011;11667;51.706;4.856;2023-02-03T15:06:45;8.68;;;2.67;;
23001;SDS011;11667;51.706;4.856;2023-02-03T15:09:23;12.35;;;3.25;;
23001;SDS011;11667;51.706;4.856;2023-02-03T15:12:17;8.43;;;2.80;;
23001;SDS011;11667;51.706;4.856;2023-02-03T15:14:47;13.58;;;3.22;;
23001;SDS011;11667;51.706;4.856;2023-02-03T15:17:23;10.30;;;3.00;;
23001;SDS011;11667;51.706;4.856;2023-02-03T15:19:57;12.28;;;3.27;;
23001;SDS011;11667;51.706;4.856;2023-02-03T15:22:27;14.10;;;3.42;;
23001;SDS011;11667;51.706;4.856;2023-02-03T15:24:58;10.85;;;3.00;;
23001;SDS011;11667;51.706;4.856;2023-02-03T15:27:31;13.80;;;3.52;;
23001;SDS011;11667;51.706;4.856;2023-02-03T15:30:13;10.80;;;2.58;;
23001;SDS011;11667;51.706;4.856;2023-02-03T15:32:47;8.50;;;2.70;;
23001;SDS011;11667;51.706;4.856;2023-02-03T15:35:17;9.75;;;3.40;;
23001;SDS011;11667;51.706;4.856;2023-02-03T15:37:49;15.68;;;4.65;;
23001;SDS011;11667;51.706;4.856;2023-02-03T15:40:21;9.23;;;3.10;;
23001;SDS011;11667;51.706;4.856;2023-02-03T15:43:01;11.43;;;2.95;;
23001;SDS011;11667;51.706;4.856;2023-02-03T15:45:56;10.23;;;2.80;;
23001;SDS011;11667;51.706;4.856;2023-02-03T15:51:23;9.40;;;2.72;;
23001;SDS011;11667;51.706;4.856;2023-02-03T15:53:57;9.80;;;2.65;;
23001;SDS011;11667;51.706;4.856;2023-02-03T15:56:35;21.20;;;3.05;;
23001;SDS011;11667;51.706;4.856;2023-02-03T15:59:17;11.05;;;2.85;;
23001;SDS011;11667;51.706;4.856;2023-02-03T16:01:52;10.53;;;3.40;;
23001;SDS011;11667;51.706;4.856;2023-02-03T16:04:22;9.95;;;2.90;;
23001;SDS011;11667;51.706;4.856;2023-02-03T16:06:53;9.63;;;2.80;;
23001;SDS011;11667;51.706;4.856;2023-02-03T16:09:29;8.88;;;2.70;;
23001;SDS011;11667;51.706;4.856;2023-02-03T16:12:24;7.33;;;3.05;;
23001;SDS011;11667;51.706;4.856;2023-02-03T16:14:58;10.43;;;3.33;;
23001;SDS011;11667;51.706;4.856;2023-02-03T16:25:34;12.18;;;3.02;;
23001;SDS011;11667;51.706;4.856;2023-02-03T16:28:15;12.15;;;3.40;;
23001;SDS011;11667;51.706;4.856;2023-02-03T16:31:17;13.35;;;3.75;;
23001;SDS011;11667;51.706;4.856;2023-02-03T16:40:12;10.28;;;3.42;;
23001;SDS011;11667;51.706;4.856;2023-02-03T16:43:02;10.00;;;3.47;;
23001;SDS011;11667;51.706;4.856;2023-02-03T16:45:52;10.53;;;3.30;;
23001;SDS011;11667;51.706;4.856;2023-02-03T16:48:41;12.28;;;3.87;;
23001;SDS011;11667;51.706;4.856;2023-02-03T16:51:38;11.73;;;3.77;;
23001;SDS011;11667;51.706;4.856;2023-02-03T16:54:11;10.98;;;3.58;;
23001;SDS011;11667;51.706;4.856;2023-02-03T16:56:41;12.30;;;3.42;;
23001;SDS011;11667;51.706;4.856;2023-02-03T16:59:11;10.08;;;3.60;;
23001;SDS011;11667;51.706;4.856;2023-02-03T17:01:40;13.08;;;3.95;;
23001;SDS011;11667;51.706;4.856;2023-02-03T17:04:09;12.35;;;4.22;;
23001;SDS011;11667;51.706;4.856;2023-02-03T17:06:39;15.83;;;4.08;;
23001;SDS011;11667;51.706;4.856;2023-02-03T17:09:10;13.17;;;3.77;;
23001;SDS011;11667;51.706;4.856;2023-02-03T17:11:41;10.35;;;3.77;;
23001;SDS011;11667;51.706;4.856;2023-02-03T17:14:19;15.43;;;4.00;;
23001;SDS011;11667;51.706;4.856;2023-02-03T17:16:48;13.78;;;4.25;;
23001;SDS011;11667;51.706;4.856;2023-02-03T17:19:18;9.70;;;3.72;;
23001;SDS011;11667;51.706;4.856;2023-02-03T17:21:47;12.25;;;3.80;;
23001;SDS011;11667;51.706;4.856;2023-02-03T17:24:18;11.40;;;3.90;;
23001;SDS011;11667;51.706;4.856;2023-02-03T17:26:47;11.55;;;4.47;;
23001;SDS011;11667;51.706;4.856;2023-02-03T17:29:17;14.60;;;4.15;;
23001;SDS011;11667;51.706;4.856;2023-02-03T17:31:46;17.92;;;4.70;;
23001;SDS011;11667;51.706;4.856;2023-02-03T17:34:16;13.32;;;4.80;;
23001;SDS011;11667;51.706;4.856;2023-02-03T17:36:45;16.42;;;4.92;;
23001;SDS011;11667;51.706;4.856;2023-02-03T17:39:29;19.20;;;5.45;;
23001;SDS011;11667;51.706;4.856;2023-02-03T17:42:17;14.18;;;4.65;;
23001;SDS011;11667;51.706;4.856;2023-02-03T17:45:05;15.85;;;4.53;;
23001;SDS011;11667;51.706;4.856;2023-02-03T17:47:53;15.98;;;4.50;;